sensor_id;sensor_type;location;lat;lon;timestamp;P1;durP1;ratioP1;P2;durP2;ratioP2
54575;SDS011;40472;53.486;14.542;2022-09-11T00:00:32;6.72;;;2.33;;
54575;SDS011;40472;53.486;14.542;2022-09-11T00:02:57;7.72;;;2.60;;
54575;SDS011;40472;53.486;14.542;2022-09-11T00:05:23;3.38;;;2.28;;
54575;SDS011;40472;53.486;14.542;2022-09-11T00:07:50;2.70;;;1.80;;
54575;SDS011;40472;53.486;14.542;2022-09-11T00:10:16;4.38;;;1.80;;
54575;SDS011;40472;53.486;14.542;2022-09-11T00:12:42;4.95;;;2.00;;
54575;SDS011;40472;53.486;14.542;2022-09-11T00:15:08;4.25;;;2.40;;
54575;SDS011;40472;53.486;14.542;2022-09-11T00:17:35;4.00;;;2.08;;
54575;SDS011;40472;53.486;14.542;2022-09-11T00:20:02;5.15;;;2.85;;
54575;SDS011;40472;53.486;14.542;2022-09-11T00:22:28;16.02;;;11.00;;
54575;SDS011;40472;53.486;14.542;2022-09-11T00:24:54;7.72;;;4.13;;
54575;SDS011;40472;53.486;14.542;2022-09-11T00:27:20;17.20;;;7.97;;
54575;SDS011;40472;53.486;14.542;2022-09-11T00:29:45;13.65;;;8.57;;
54575;SDS011;40472;53.486;14.542;2022-09-11T00:32:11;14.63;;;8.30;;
54575;SDS011;40472;53.486;14.542;2022-09-11T00:34:38;28.00;;;11.18;;
54575;SDS011;40472;53.486;14.542;2022-09-11T00:37:05;39.85;;;16.77;;
54575;SDS011;40472;53.486;14.542;2022-09-11T00:39:30;35.80;;;15.75;;
54575;SDS011;40472;53.486;14.542;2022-09-11T00:41:56;27.30;;;11.75;;
54575;SDS011;40472;53.486;14.542;2022-09-11T00:47:00;22.50;;;10.05;;
54575;SDS011;40472;53.486;14.542;2022-09-11T00:52:14;20.35;;;7.80;;
54575;SDS011;40472;53.486;14.542;2022-09-11T00:54:46;12.88;;;7.50;;
54575;SDS011;40472;53.486;14.542;2022-09-11T00:57:15;16.55;;;8.07;;
54575;SDS011;40472;53.486;14.542;2022-09-11T00:59:44;14.00;;;7.90;;
54575;SDS011;40472;53.486;14.542;2022-09-11T01:02:15;26.35;;;11.32;;
54575;SDS011;40472;53.486;14.542;2022-09-11T01:04:43;20.15;;;10.20;;
54575;SDS011;40472;53.486;14.542;2022-09-11T01:07:09;26.92;;;12.57;;
54575;SDS011;40472;53.486;14.542;2022-09-11T01:09:37;35.85;;;12.90;;
54575;SDS011;40472;53.486;14.542;2022-09-11T01:12:05;26.30;;;10.23;;
54575;SDS011;40472;53.486;14.542;2022-09-11T01:20:24;27.05;;;13.57;;
54575;SDS011;40472;53.486;14.542;2022-09-11T01:25:57;29.73;;;13.00;;
54575;SDS011;40472;53.486;14.542;2022-09-11T01:31:10;45.25;;;18.13;;
54575;SDS011;40472;53.486;14.542;2022-09-11T01:36:17;58.72;;;21.65;;
54575;SDS011;40472;53.486;14.542;2022-09-11T01:41:23;40.67;;;16.17;;
54575;SDS011;40472;53.486;14.542;2022-09-11T01:51:34;51.97;;;15.20;;
54575;SDS011;40472;53.486;14.542;2022-09-11T01:54:03;91.45;;;16.67;;
54575;SDS011;40472;53.486;14.542;2022-09-11T01:56:36;62.97;;;16.55;;
54575;SDS011;40472;53.486;14.542;2022-09-11T01:59:06;69.45;;;15.15;;
54575;SDS011;40472;53.486;14.542;2022-09-11T02:01:35;97.65;;;14.93;;
54575;SDS011;40472;53.486;14.542;2022-09-11T02:04:04;133.75;;;15.25;;
54575;SDS011;40472;53.486;14.542;2022-09-11T02:06:54;51.22;;;11.30;;
54575;SDS011;40472;53.486;14.542;2022-09-11T02:09:30;81.75;;;15.13;;
54575;SDS011;40472;53.486;14.542;2022-09-11T02:12:00;102.45;;;13.50;;
54575;SDS011;40472;53.486;14.542;2022-09-11T02:14:35;136.52;;;13.68;;
54575;SDS011;40472;53.486;14.542;2022-09-11T02:19:38;34.15;;;12.07;;
54575;SDS011;40472;53.486;14.542;2022-09-11T02:22:05;24.85;;;11.23;;
54575;SDS011;40472;53.486;14.542;2022-09-11T02:24:31;33.08;;;11.00;;
54575;SDS011;40472;53.486;14.542;2022-09-11T02:27:07;35.35;;;9.52;;
54575;SDS011;40472;53.486;14.542;2022-09-11T02:29:36;45.42;;;11.73;;
54575;SDS011;40472;53.486;14.542;2022-09-11T02:32:03;43.55;;;11.93;;
54575;SDS011;40472;53.486;14.542;2022-09-11T02:34:32;29.73;;;11.00;;
54575;SDS011;40472;53.486;14.542;2022-09-11T02:46:12;38.22;;;13.27;;
54575;SDS011;40472;53.486;14.542;2022-09-11T02:49:07;32.30;;;11.95;;
54575;SDS011;40472;53.486;14.542;2022-09-11T02:57:04;75.80;;;16.15;;
54575;SDS011;40472;53.486;14.542;2022-09-11T02:59:39;60.28;;;16.60;;
54575;SDS011;40472;53.486;14.542;2022-09-11T03:02:11;69.72;;;18.48;;
54575;SDS011;40472;53.486;14.542;2022-09-11T03:04:38;65.32;;;16.08;;
54575;SDS011;40472;53.486;14.542;2022-09-11T03:07:06;58.08;;;15.70;;
54575;SDS011;40472;53.486;14.542;2022-09-11T03:09:32;70.00;;;16.90;;
54575;SDS011;40472;53.486;14.542;2022-09-11T03:11:59;52.05;;;14.38;;
54575;SDS011;40472;53.486;14.542;2022-09-11T03:14:25;65.80;;;17.40;;
54575;SDS011;40472;53.486;14.542;2022-09-11T03:16:51;68.38;;;15.40;;
54575;SDS011;40472;53.486;14.542;2022-09-11T03:19:17;68.93;;;15.88;;
54575;SDS011;40472;53.486;14.542;2022-09-11T03:21:43;57.63;;;17.80;;
54575;SDS011;40472;53.486;14.542;2022-09-11T03:24:09;72.93;;;19.35;;
54575;SDS011;40472;53.486;14.542;2022-09-11T03:26:36;56.72;;;18.38;;
54575;SDS011;40472;53.486;14.542;2022-09-11T03:29:02;65.32;;;19.65;;
54575;SDS011;40472;53.486;14.542;2022-09-11T03:31:28;71.80;;;20.90;;
54575;SDS011;40472;53.486;14.542;2022-09-11T03:33:54;53.08;;;19.52;;
54575;SDS011;40472;53.486;14.542;2022-09-11T03:36:20;65.13;;;21.85;;
54575;SDS011;40472;53.486;14.542;2022-09-11T03:38:46;107.60;;;23.02;;
54575;SDS011;40472;53.486;14.542;2022-09-11T03:41:13;102.13;;;20.85;;
54575;SDS011;40472;53.486;14.542;2022-09-11T03:43:38;73.57;;;20.52;;
54575;SDS011;40472;53.486;14.542;2022-09-11T03:46:04;63.83;;;23.50;;
54575;SDS011;40472;53.486;14.542;2022-09-11T03:48:30;60.60;;;21.83;;
54575;SDS011;40472;53.486;14.542;2022-09-11T03:50:56;43.20;;;20.02;;
54575;SDS011;40472;53.486;14.542;2022-09-11T03:53:23;37.92;;;18.02;;
54575;SDS011;40472;53.486;14.542;2022-09-11T03:55:49;32.15;;;14.93;;
54575;SDS011;40472;53.486;14.542;2022-09-11T03:58:15;37.30;;;15.90;;
54575;SDS011;40472;53.486;14.542;2022-09-11T04:00:44;44.28;;;20.40;;
54575;SDS011;40472;53.486;14.542;2022-09-11T04:03:10;31.48;;;14.63;;
54575;SDS011;40472;53.486;14.542;2022-09-11T04:05:36;32.30;;;15.05;;
54575;SDS011;40472;53.486;14.542;2022-09-11T04:08:03;32.63;;;14.95;;
54575;SDS011;40472;53.486;14.542;2022-09-11T04:10:33;27.38;;;12.98;;
54575;SDS011;40472;53.486;14.542;2022-09-11T04:12:59;35.88;;;16.17;;
54575;SDS011;40472;53.486;14.542;2022-09-11T04:15:25;35.33;;;15.20;;
54575;SDS011;40472;53.486;14.542;2022-09-11T04:17:51;32.45;;;13.45;;
54575;SDS011;40472;53.486;14.542;2022-09-11T04:20:17;31.23;;;14.73;;
54575;SDS011;40472;53.486;14.542;2022-09-11T04:22:43;31.52;;;13.77;;
54575;SDS011;40472;53.486;14.542;2022-09-11T04:25:09;30.98;;;13.57;;
54575;SDS011;40472;53.486;14.542;2022-09-11T04:27:36;30.55;;;13.18;;
54575;SDS011;40472;53.486;14.542;2022-09-11T04:30:02;28.80;;;12.77;;
54575;SDS011;40472;53.486;14.542;2022-09-11T04:32:29;30.80;;;13.48;;
54575;SDS011;40472;53.486;14.542;2022-09-11T04:34:54;27.60;;;13.32;;
54575;SDS011;40472;53.486;14.542;2022-09-11T04:37:20;29.50;;;13.50;;
54575;SDS011;40472;53.486;14.542;2022-09-11T04:39:46;22.38;;;12.10;;
54575;SDS011;40472;53.486;14.542;2022-09-11T04:42:13;22.52;;;11.38;;
54575;SDS011;40472;53.486;14.542;2022-09-11T04:44:38;23.40;;;11.38;;
54575;SDS011;40472;53.486;14.542;2022-09-11T04:47:04;21.10;;;10.63;;
54575;SDS011;40472;53.486;14.542;2022-09-11T04:49:30;22.02;;;10.60;;
54575;SDS011;40472;53.486;14.542;2022-09-11T04:51:57;24.48;;;10.93;;
54575;SDS011;40472;53.486;14.542;2022-09-11T04:54:26;24.02;;;12.07;;
54575;SDS011;40472;53.486;14.542;2022-09-11T04:56:52;20.80;;;10.13;;
54575;SDS011;40472;53.486;14.542;2022-09-11T04:59:19;22.45;;;10.70;;
54575;SDS011;40472;53.486;14.542;2022-09-11T05:01:47;21.48;;;10.60;;
54575;SDS011;40472;53.486;14.542;2022-09-11T05:04:13;19.27;;;10.25;;
54575;SDS011;40472;53.486;14.542;2022-09-11T05:06:40;25.67;;;10.50;;
54575;SDS011;40472;53.486;14.542;2022-09-11T05:09:09;22.58;;;10.63;;
54575;SDS011;40472;53.486;14.542;2022-09-11T05:11:35;18.48;;;9.23;;
54575;SDS011;40472;53.486;14.542;2022-09-11T05:14:03;23.02;;;10.57;;
54575;SDS011;40472;53.486;14.542;2022-09-11T05:16:29;20.65;;;9.98;;
54575;SDS011;40472;53.486;14.542;2022-09-11T05:18:56;19.55;;;10.43;;
54575;SDS011;40472;53.486;14.542;2022-09-11T05:21:23;18.52;;;10.45;;
54575;SDS011;40472;53.486;14.542;2022-09-11T05:23:50;21.33;;;10.90;;
54575;SDS011;40472;53.486;14.542;2022-09-11T05:26:18;19.58;;;10.60;;
54575;SDS011;40472;53.486;14.542;2022-09-11T05:28:52;18.80;;;11.55;;
54575;SDS011;40472;53.486;14.542;2022-09-11T05:31:19;25.92;;;11.90;;
54575;SDS011;40472;53.486;14.542;2022-09-11T05:33:46;22.90;;;11.88;;
54575;SDS011;40472;53.486;14.542;2022-09-11T05:36:13;26.88;;;12.85;;
54575;SDS011;40472;53.486;14.542;2022-09-11T05:38:40;24.23;;;12.95;;
54575;SDS011;40472;53.486;14.542;2022-09-11T05:41:08;33.25;;;13.50;;
54575;SDS011;40472;53.486;14.542;2022-09-11T05:43:35;28.73;;;13.48;;
54575;SDS011;40472;53.486;14.542;2022-09-11T05:46:02;28.85;;;13.80;;
54575;SDS011;40472;53.486;14.542;2022-09-11T05:48:29;27.85;;;13.15;;
54575;SDS011;40472;53.486;14.542;2022-09-11T05:50:57;24.60;;;14.23;;
54575;SDS011;40472;53.486;14.542;2022-09-11T05:53:24;20.35;;;11.05;;
54575;SDS011;40472;53.486;14.542;2022-09-11T05:55:52;21.00;;;11.50;;
54575;SDS011;40472;53.486;14.542;2022-09-11T05:58:19;23.77;;;11.52;;
54575;SDS011;40472;53.486;14.542;2022-09-11T06:00:45;27.02;;;12.10;;
54575;SDS011;40472;53.486;14.542;2022-09-11T06:03:15;28.17;;;12.15;;
54575;SDS011;40472;53.486;14.542;2022-09-11T06:05:42;24.83;;;12.07;;
54575;SDS011;40472;53.486;14.542;2022-09-11T06:08:08;30.52;;;12.77;;
54575;SDS011;40472;53.486;14.542;2022-09-11T06:10:35;25.08;;;12.07;;
54575;SDS011;40472;53.486;14.542;2022-09-11T06:13:10;20.85;;;11.40;;
54575;SDS011;40472;53.486;14.542;2022-09-11T06:15:42;26.25;;;12.27;;
54575;SDS011;40472;53.486;14.542;2022-09-11T06:18:13;22.27;;;12.65;;
54575;SDS011;40472;53.486;14.542;2022-09-11T06:20:39;31.48;;;13.70;;
54575;SDS011;40472;53.486;14.542;2022-09-11T06:23:05;31.60;;;13.80;;
54575;SDS011;40472;53.486;14.542;2022-09-11T06:25:35;25.38;;;12.52;;
54575;SDS011;40472;53.486;14.542;2022-09-11T06:28:01;26.42;;;12.30;;
54575;SDS011;40472;53.486;14.542;2022-09-11T06:30:28;24.30;;;12.80;;
54575;SDS011;40472;53.486;14.542;2022-09-11T06:32:54;26.48;;;11.93;;
54575;SDS011;40472;53.486;14.542;2022-09-11T06:35:20;39.78;;;17.42;;
54575;SDS011;40472;53.486;14.542;2022-09-11T06:37:47;32.90;;;13.95;;
54575;SDS011;40472;53.486;14.542;2022-09-11T06:40:14;41.58;;;15.40;;
54575;SDS011;40472;53.486;14.542;2022-09-11T06:42:42;32.13;;;12.73;;
54575;SDS011;40472;53.486;14.542;2022-09-11T06:45:07;18.38;;;6.88;;
54575;SDS011;40472;53.486;14.542;2022-09-11T06:47:34;18.23;;;7.25;;
54575;SDS011;40472;53.486;14.542;2022-09-11T06:49:59;12.27;;;5.93;;
54575;SDS011;40472;53.486;14.542;2022-09-11T06:52:25;12.02;;;5.82;;
54575;SDS011;40472;53.486;14.542;2022-09-11T06:54:52;13.20;;;6.45;;
54575;SDS011;40472;53.486;14.542;2022-09-11T06:57:18;11.55;;;5.32;;
54575;SDS011;40472;53.486;14.542;2022-09-11T06:59:43;10.57;;;5.63;;
54575;SDS011;40472;53.486;14.542;2022-09-11T07:02:11;11.45;;;5.93;;
54575;SDS011;40472;53.486;14.542;2022-09-11T07:04:43;11.45;;;6.78;;
54575;SDS011;40472;53.486;14.542;2022-09-11T07:07:11;14.68;;;7.85;;
54575;SDS011;40472;53.486;14.542;2022-09-11T07:09:37;12.02;;;6.68;;
54575;SDS011;40472;53.486;14.542;2022-09-11T07:12:03;11.48;;;6.47;;
54575;SDS011;40472;53.486;14.542;2022-09-11T07:14:29;14.45;;;6.75;;
54575;SDS011;40472;53.486;14.542;2022-09-11T07:16:55;10.05;;;5.45;;
54575;SDS011;40472;53.486;14.542;2022-09-11T07:19:21;11.02;;;5.95;;
54575;SDS011;40472;53.486;14.542;2022-09-11T07:21:49;8.90;;;5.70;;
54575;SDS011;40472;53.486;14.542;2022-09-11T07:24:15;9.30;;;3.75;;
54575;SDS011;40472;53.486;14.542;2022-09-11T07:26:41;8.00;;;4.95;;
54575;SDS011;40472;53.486;14.542;2022-09-11T07:29:07;7.80;;;4.50;;
54575;SDS011;40472;53.486;14.542;2022-09-11T07:31:33;8.50;;;4.93;;
54575;SDS011;40472;53.486;14.542;2022-09-11T07:34:02;6.35;;;3.70;;
54575;SDS011;40472;53.486;14.542;2022-09-11T07:36:31;14.57;;;3.25;;
54575;SDS011;40472;53.486;14.542;2022-09-11T07:38:59;6.15;;;3.47;;
54575;SDS011;40472;53.486;14.542;2022-09-11T07:41:25;6.30;;;3.17;;
54575;SDS011;40472;53.486;14.542;2022-09-11T07:43:56;5.68;;;3.50;;
54575;SDS011;40472;53.486;14.542;2022-09-11T07:46:24;6.40;;;3.17;;
54575;SDS011;40472;53.486;14.542;2022-09-11T07:48:51;7.65;;;3.70;;
54575;SDS011;40472;53.486;14.542;2022-09-11T07:51:18;4.38;;;3.00;;
54575;SDS011;40472;53.486;14.542;2022-09-11T07:53:48;10.05;;;3.47;;
54575;SDS011;40472;53.486;14.542;2022-09-11T07:56:16;5.82;;;3.42;;
54575;SDS011;40472;53.486;14.542;2022-09-11T07:58:44;5.95;;;3.35;;
54575;SDS011;40472;53.486;14.542;2022-09-11T08:01:12;5.15;;;2.50;;
54575;SDS011;40472;53.486;14.542;2022-09-11T08:03:40;4.68;;;2.60;;
54575;SDS011;40472;53.486;14.542;2022-09-11T08:06:14;9.43;;;2.97;;
54575;SDS011;40472;53.486;14.542;2022-09-11T08:08:42;5.93;;;3.35;;
54575;SDS011;40472;53.486;14.542;2022-09-11T08:11:13;7.30;;;3.70;;
54575;SDS011;40472;53.486;14.542;2022-09-11T08:13:40;5.72;;;3.50;;
54575;SDS011;40472;53.486;14.542;2022-09-11T08:16:06;6.85;;;3.58;;
54575;SDS011;40472;53.486;14.542;2022-09-11T08:18:33;5.35;;;3.22;;
54575;SDS011;40472;53.486;14.542;2022-09-11T08:21:03;5.45;;;2.92;;
54575;SDS011;40472;53.486;14.542;2022-09-11T08:23:32;5.53;;;3.13;;
54575;SDS011;40472;53.486;14.542;2022-09-11T08:26:05;6.53;;;3.00;;
54575;SDS011;40472;53.486;14.542;2022-09-11T08:28:35;7.03;;;2.70;;
54575;SDS011;40472;53.486;14.542;2022-09-11T08:31:02;4.43;;;2.72;;
54575;SDS011;40472;53.486;14.542;2022-09-11T08:33:29;8.07;;;3.20;;
54575;SDS011;40472;53.486;14.542;2022-09-11T08:35:57;5.78;;;3.03;;
54575;SDS011;40472;53.486;14.542;2022-09-11T08:38:24;5.80;;;3.33;;
54575;SDS011;40472;53.486;14.542;2022-09-11T08:40:51;5.13;;;2.60;;
54575;SDS011;40472;53.486;14.542;2022-09-11T08:43:22;5.53;;;2.55;;
54575;SDS011;40472;53.486;14.542;2022-09-11T08:45:52;5.28;;;2.53;;
54575;SDS011;40472;53.486;14.542;2022-09-11T08:48:23;5.45;;;2.50;;
54575;SDS011;40472;53.486;14.542;2022-09-11T08:50:56;6.35;;;2.95;;
54575;SDS011;40472;53.486;14.542;2022-09-11T08:53:22;5.88;;;2.45;;
54575;SDS011;40472;53.486;14.542;2022-09-11T08:55:51;6.32;;;2.28;;
54575;SDS011;40472;53.486;14.542;2022-09-11T08:58:29;3.75;;;2.22;;
54575;SDS011;40472;53.486;14.542;2022-09-11T09:06:38;4.60;;;2.15;;
54575;SDS011;40472;53.486;14.542;2022-09-11T09:09:20;3.60;;;1.60;;
54575;SDS011;40472;53.486;14.542;2022-09-11T09:12:07;6.53;;;2.60;;
54575;SDS011;40472;53.486;14.542;2022-09-11T09:17:37;3.70;;;1.52;;
54575;SDS011;40472;53.486;14.542;2022-09-11T09:20:30;4.03;;;2.30;;
54575;SDS011;40472;53.486;14.542;2022-09-11T09:23:06;3.80;;;2.28;;
54575;SDS011;40472;53.486;14.542;2022-09-11T09:25:37;5.43;;;2.70;;
54575;SDS011;40472;53.486;14.542;2022-09-11T09:28:20;5.38;;;2.50;;
54575;SDS011;40472;53.486;14.542;2022-09-11T09:30:59;3.83;;;2.33;;
54575;SDS011;40472;53.486;14.542;2022-09-11T09:36:17;4.05;;;1.70;;
54575;SDS011;40472;53.486;14.542;2022-09-11T09:38:47;5.10;;;1.88;;
54575;SDS011;40472;53.486;14.542;2022-09-11T09:44:10;3.90;;;1.65;;
54575;SDS011;40472;53.486;14.542;2022-09-11T09:46:54;3.25;;;2.00;;
54575;SDS011;40472;53.486;14.542;2022-09-11T09:49:24;4.38;;;1.90;;
54575;SDS011;40472;53.486;14.542;2022-09-11T09:52:00;7.47;;;1.90;;
54575;SDS011;40472;53.486;14.542;2022-09-11T09:54:38;3.20;;;1.67;;
54575;SDS011;40472;53.486;14.542;2022-09-11T09:57:05;3.53;;;1.77;;
54575;SDS011;40472;53.486;14.542;2022-09-11T09:59:48;2.15;;;1.40;;
54575;SDS011;40472;53.486;14.542;2022-09-11T10:02:35;2.25;;;1.50;;
54575;SDS011;40472;53.486;14.542;2022-09-11T10:08:05;2.70;;;1.50;;
54575;SDS011;40472;53.486;14.542;2022-09-11T10:11:10;7.32;;;1.50;;
54575;SDS011;40472;53.486;14.542;2022-09-11T10:13:39;2.40;;;1.55;;
54575;SDS011;40472;53.486;14.542;2022-09-11T10:16:26;4.03;;;1.50;;
54575;SDS011;40472;53.486;14.542;2022-09-11T10:18:54;5.63;;;1.55;;
54575;SDS011;40472;53.486;14.542;2022-09-11T10:26:41;3.38;;;1.83;;
54575;SDS011;40472;53.486;14.542;2022-09-11T10:31:49;2.65;;;1.73;;
54575;SDS011;40472;53.486;14.542;2022-09-11T10:34:18;2.58;;;1.30;;
54575;SDS011;40472;53.486;14.542;2022-09-11T10:36:51;3.88;;;1.65;;
54575;SDS011;40472;53.486;14.542;2022-09-11T10:39:27;2.60;;;1.35;;
54575;SDS011;40472;53.486;14.542;2022-09-11T10:41:56;2.53;;;1.48;;
54575;SDS011;40472;53.486;14.542;2022-09-11T10:44:26;2.42;;;1.23;;
54575;SDS011;40472;53.486;14.542;2022-09-11T10:47:04;2.03;;;1.27;;
54575;SDS011;40472;53.486;14.542;2022-09-11T10:49:39;2.53;;;1.35;;
54575;SDS011;40472;53.486;14.542;2022-09-11T10:57:48;3.22;;;1.20;;
54575;SDS011;40472;53.486;14.542;2022-09-11T11:00:18;2.85;;;1.42;;
54575;SDS011;40472;53.486;14.542;2022-09-11T11:02:49;1.88;;;1.27;;
54575;SDS011;40472;53.486;14.542;2022-09-11T11:14:55;3.95;;;1.23;;
54575;SDS011;40472;53.486;14.542;2022-09-11T11:23:13;1.70;;;1.17;;
54575;SDS011;40472;53.486;14.542;2022-09-11T11:31:46;1.95;;;1.30;;
54575;SDS011;40472;53.486;14.542;2022-09-11T11:37:35;2.22;;;1.10;;
54575;SDS011;40472;53.486;14.542;2022-09-11T11:40:26;2.25;;;1.38;;
54575;SDS011;40472;53.486;14.542;2022-09-11T11:43:06;2.38;;;1.38;;
54575;SDS011;40472;53.486;14.542;2022-09-11T11:45:38;2.55;;;1.50;;
54575;SDS011;40472;53.486;14.542;2022-09-11T11:48:56;3.35;;;1.23;;
54575;SDS011;40472;53.486;14.542;2022-09-11T11:51:10;2.10;;;1.30;;
54575;SDS011;40472;53.486;14.542;2022-09-11T11:58:52;2.15;;;1.40;;
54575;SDS011;40472;53.486;14.542;2022-09-11T12:01:45;2.45;;;1.55;;
54575;SDS011;40472;53.486;14.542;2022-09-11T12:06:59;3.97;;;1.15;;
54575;SDS011;40472;53.486;14.542;2022-09-11T12:09:26;1.65;;;0.90;;
54575;SDS011;40472;53.486;14.542;2022-09-11T12:11:55;1.70;;;1.20;;
54575;SDS011;40472;53.486;14.542;2022-09-11T12:14:31;3.83;;;1.52;;
54575;SDS011;40472;53.486;14.542;2022-09-11T12:22:41;3.03;;;1.20;;
54575;SDS011;40472;53.486;14.542;2022-09-11T12:32:43;2.88;;;1.50;;
54575;SDS011;40472;53.486;14.542;2022-09-11T12:35:47;2.22;;;1.27;;
54575;SDS011;40472;53.486;14.542;2022-09-11T12:46:00;1.80;;;1.40;;
54575;SDS011;40472;53.486;14.542;2022-09-11T12:51:14;4.93;;;1.80;;
54575;SDS011;40472;53.486;14.542;2022-09-11T12:53:46;3.35;;;1.00;;
54575;SDS011;40472;53.486;14.542;2022-09-11T12:56:16;2.25;;;1.27;;
54575;SDS011;40472;53.486;14.542;2022-09-11T12:58:55;2.05;;;1.38;;
54575;SDS011;40472;53.486;14.542;2022-09-11T13:01:28;2.20;;;1.38;;
54575;SDS011;40472;53.486;14.542;2022-09-11T13:04:01;3.55;;;1.80;;
54575;SDS011;40472;53.486;14.542;2022-09-11T13:07:07;2.80;;;1.30;;
54575;SDS011;40472;53.486;14.542;2022-09-11T13:09:37;3.50;;;1.65;;
54575;SDS011;40472;53.486;14.542;2022-09-11T13:14:53;2.05;;;1.05;;
54575;SDS011;40472;53.486;14.542;2022-09-11T13:17:21;2.53;;;1.13;;
54575;SDS011;40472;53.486;14.542;2022-09-11T13:22:34;2.33;;;1.27;;
54575;SDS011;40472;53.486;14.542;2022-09-11T13:27:38;2.70;;;1.45;;
54575;SDS011;40472;53.486;14.542;2022-09-11T13:30:07;2.15;;;1.40;;
54575;SDS011;40472;53.486;14.542;2022-09-11T13:32:39;2.17;;;1.40;;
54575;SDS011;40472;53.486;14.542;2022-09-11T13:35:16;2.45;;;1.23;;
54575;SDS011;40472;53.486;14.542;2022-09-11T13:37:57;2.30;;;1.00;;
54575;SDS011;40472;53.486;14.542;2022-09-11T13:43:02;2.95;;;1.63;;
54575;SDS011;40472;53.486;14.542;2022-09-11T13:45:29;4.35;;;1.70;;
54575;SDS011;40472;53.486;14.542;2022-09-11T13:47:54;2.25;;;1.50;;
54575;SDS011;40472;53.486;14.542;2022-09-11T13:50:22;1.90;;;1.15;;
54575;SDS011;40472;53.486;14.542;2022-09-11T13:52:48;1.95;;;1.40;;
54575;SDS011;40472;53.486;14.542;2022-09-11T13:55:18;4.43;;;1.42;;
54575;SDS011;40472;53.486;14.542;2022-09-11T13:57:50;4.75;;;1.67;;
54575;SDS011;40472;53.486;14.542;2022-09-11T14:03:00;1.50;;;1.02;;
54575;SDS011;40472;53.486;14.542;2022-09-11T14:05:26;8.60;;;1.60;;
54575;SDS011;40472;53.486;14.542;2022-09-11T14:07:59;3.03;;;1.15;;
54575;SDS011;40472;53.486;14.542;2022-09-11T14:10:33;2.28;;;1.10;;
54575;SDS011;40472;53.486;14.542;2022-09-11T14:13:15;2.13;;;1.42;;
54575;SDS011;40472;53.486;14.542;2022-09-11T14:20:53;2.70;;;1.23;;
54575;SDS011;40472;53.486;14.542;2022-09-11T14:23:25;2.00;;;1.40;;
54575;SDS011;40472;53.486;14.542;2022-09-11T14:29:00;4.10;;;1.40;;
54575;SDS011;40472;53.486;14.542;2022-09-11T14:31:36;2.75;;;1.50;;
54575;SDS011;40472;53.486;14.542;2022-09-11T14:34:15;1.90;;;1.20;;
54575;SDS011;40472;53.486;14.542;2022-09-11T14:36:57;3.47;;;1.27;;
54575;SDS011;40472;53.486;14.542;2022-09-11T14:42:01;1.30;;;1.08;;
54575;SDS011;40472;53.486;14.542;2022-09-11T14:44:29;2.92;;;1.40;;
54575;SDS011;40472;53.486;14.542;2022-09-11T14:46:57;2.38;;;0.90;;
54575;SDS011;40472;53.486;14.542;2022-09-11T14:49:23;4.95;;;1.77;;
54575;SDS011;40472;53.486;14.542;2022-09-11T14:51:56;3.00;;;1.63;;
54575;SDS011;40472;53.486;14.542;2022-09-11T14:54:24;2.05;;;1.33;;
54575;SDS011;40472;53.486;14.542;2022-09-11T14:56:54;2.45;;;1.50;;
54575;SDS011;40472;53.486;14.542;2022-09-11T14:59:22;2.35;;;1.10;;
54575;SDS011;40472;53.486;14.542;2022-09-11T15:01:48;3.33;;;1.30;;
54575;SDS011;40472;53.486;14.542;2022-09-11T15:04:16;2.20;;;1.20;;
54575;SDS011;40472;53.486;14.542;2022-09-11T15:06:44;3.35;;;1.38;;
54575;SDS011;40472;53.486;14.542;2022-09-11T15:09:14;2.05;;;1.30;;
54575;SDS011;40472;53.486;14.542;2022-09-11T15:11:40;3.50;;;1.45;;
54575;SDS011;40472;53.486;14.542;2022-09-11T15:14:06;3.13;;;1.60;;
54575;SDS011;40472;53.486;14.542;2022-09-11T15:16:33;2.85;;;1.60;;
54575;SDS011;40472;53.486;14.542;2022-09-11T15:18:59;2.78;;;1.75;;
54575;SDS011;40472;53.486;14.542;2022-09-11T15:21:24;2.55;;;1.30;;
54575;SDS011;40472;53.486;14.542;2022-09-11T15:23:50;3.22;;;2.00;;
54575;SDS011;40472;53.486;14.542;2022-09-11T15:26:16;2.08;;;1.05;;
54575;SDS011;40472;53.486;14.542;2022-09-11T15:28:42;2.72;;;1.60;;
54575;SDS011;40472;53.486;14.542;2022-09-11T15:31:08;2.65;;;1.70;;
54575;SDS011;40472;53.486;14.542;2022-09-11T15:33:35;2.80;;;1.40;;
54575;SDS011;40472;53.486;14.542;2022-09-11T15:36:02;2.03;;;1.55;;
54575;SDS011;40472;53.486;14.542;2022-09-11T15:38:29;2.60;;;1.42;;
54575;SDS011;40472;53.486;14.542;2022-09-11T15:40:56;2.97;;;1.70;;
54575;SDS011;40472;53.486;14.542;2022-09-11T15:43:23;3.95;;;1.80;;
54575;SDS011;40472;53.486;14.542;2022-09-11T15:45:50;3.05;;;1.67;;
54575;SDS011;40472;53.486;14.542;2022-09-11T15:48:16;1.90;;;1.27;;
54575;SDS011;40472;53.486;14.542;2022-09-11T15:50:43;3.35;;;1.73;;
54575;SDS011;40472;53.486;14.542;2022-09-11T15:53:09;4.10;;;1.83;;
54575;SDS011;40472;53.486;14.542;2022-09-11T15:55:35;1.85;;;1.20;;
54575;SDS011;40472;53.486;14.542;2022-09-11T15:58:01;8.93;;;1.70;;
54575;SDS011;40472;53.486;14.542;2022-09-11T16:00:27;3.65;;;1.77;;
54575;SDS011;40472;53.486;14.542;2022-09-11T16:02:53;4.85;;;1.85;;
54575;SDS011;40472;53.486;14.542;2022-09-11T16:05:20;3.40;;;1.58;;
54575;SDS011;40472;53.486;14.542;2022-09-11T16:07:47;5.03;;;2.00;;
54575;SDS011;40472;53.486;14.542;2022-09-11T16:10:13;2.40;;;1.40;;
54575;SDS011;40472;53.486;14.542;2022-09-11T16:12:39;2.92;;;1.63;;
54575;SDS011;40472;53.486;14.542;2022-09-11T16:15:05;3.22;;;1.23;;
54575;SDS011;40472;53.486;14.542;2022-09-11T16:17:31;2.78;;;1.63;;
54575;SDS011;40472;53.486;14.542;2022-09-11T16:19:58;2.65;;;1.63;;
54575;SDS011;40472;53.486;14.542;2022-09-11T16:22:24;2.55;;;1.40;;
54575;SDS011;40472;53.486;14.542;2022-09-11T16:24:55;4.70;;;1.70;;
54575;SDS011;40472;53.486;14.542;2022-09-11T16:27:23;2.30;;;1.50;;
54575;SDS011;40472;53.486;14.542;2022-09-11T16:29:49;2.97;;;1.50;;
54575;SDS011;40472;53.486;14.542;2022-09-11T16:32:16;1.92;;;1.40;;
54575;SDS011;40472;53.486;14.542;2022-09-11T16:34:52;2.10;;;1.40;;
54575;SDS011;40472;53.486;14.542;2022-09-11T16:37:18;4.53;;;1.67;;
54575;SDS011;40472;53.486;14.542;2022-09-11T16:39:45;2.35;;;1.63;;
54575;SDS011;40472;53.486;14.542;2022-09-11T16:42:14;3.10;;;1.50;;
54575;SDS011;40472;53.486;14.542;2022-09-11T16:44:40;3.45;;;1.67;;
54575;SDS011;40472;53.486;14.542;2022-09-11T16:47:06;2.80;;;1.70;;
54575;SDS011;40472;53.486;14.542;2022-09-11T16:49:32;2.55;;;1.63;;
54575;SDS011;40472;53.486;14.542;2022-09-11T16:51:57;4.13;;;1.67;;
54575;SDS011;40472;53.486;14.542;2022-09-11T16:54:24;2.92;;;1.83;;
54575;SDS011;40472;53.486;14.542;2022-09-11T16:56:50;4.82;;;1.90;;
54575;SDS011;40472;53.486;14.542;2022-09-11T16:59:16;3.67;;;1.70;;
54575;SDS011;40472;53.486;14.542;2022-09-11T17:01:42;5.28;;;1.83;;
54575;SDS011;40472;53.486;14.542;2022-09-11T17:04:09;3.38;;;1.92;;
54575;SDS011;40472;53.486;14.542;2022-09-11T17:06:35;5.60;;;2.03;;
54575;SDS011;40472;53.486;14.542;2022-09-11T17:09:00;2.85;;;1.67;;
54575;SDS011;40472;53.486;14.542;2022-09-11T17:11:29;3.35;;;1.75;;
54575;SDS011;40472;53.486;14.542;2022-09-11T17:13:56;3.03;;;1.90;;